sensor_id;sensor_type;location;lat;lon;timestamp;pressure;altitude;pressure_sealevel;temperature;humidity
3917;BME280;1973;50.518;7.318;2023-01-30T00:00:56;101441.53;;;3.69;100.00
3917;BME280;1973;50.518;7.318;2023-01-30T00:03:23;101435.03;;;3.70;100.00
3917;BME280;1973;50.518;7.318;2023-01-30T00:05:50;101415.00;;;3.71;100.00
3917;BME280;1973;50.518;7.318;2023-01-30T00:08:17;101425.56;;;3.74;100.00
3917;BME280;1973;50.518;7.318;2023-01-30T00:10:45;101417.94;;;3.77;100.00
3917;BME280;1973;50.518;7.318;2023-01-30T00:13:12;101420.50;;;3.79;100.00
3917;BME280;1973;50.518;7.318;2023-01-30T00:15:40;101425.66;;;3.82;100.00
3917;BME280;1973;50.518;7.318;2023-01-30T00:18:07;101441.97;;;3.82;100.00
3917;BME280;1973;50.518;7.318;2023-01-30T00:20:34;101428.22;;;3.83;100.00
3917;BME280;1973;50.518;7.318;2023-01-30T00:23:00;101434.00;;;3.80;100.00
3917;BME280;1973;50.518;7.318;2023-01-30T00:25:27;101418.09;;;3.76;100.00
3917;BME280;1973;50.518;7.318;2023-01-30T00:27:54;101414.13;;;3.70;100.00
3917;BME280;1973;50.518;7.318;2023-01-30T00:30:21;101415.16;;;3.69;100.00
3917;BME280;1973;50.518;7.318;2023-01-30T00:32:55;101416.00;;;3.70;100.00
3917;BME280;1973;50.518;7.318;2023-01-30T00:35:22;101416.47;;;3.65;100.00
3917;BME280;1973;50.518;7.318;2023-01-30T00:37:57;101404.72;;;3.65;100.00
3917;BME280;1973;50.518;7.318;2023-01-30T00:40:25;101397.56;;;3.64;100.00
3917;BME280;1973;50.518;7.318;2023-01-30T00:42:52;101391.13;;;3.65;100.00
3917;BME280;1973;50.518;7.318;2023-01-30T00:45:43;101394.53;;;3.67;100.00
3917;BME280;1973;50.518;7.318;2023-01-30T00:48:29;101399.97;;;3.67;100.00
3917;BME280;1973;50.518;7.318;2023-01-30T00:50:56;101381.63;;;3.69;100.00
3917;BME280;1973;50.518;7.318;2023-01-30T00:53:23;101384.03;;;3.72;100.00
3917;BME280;1973;50.518;7.318;2023-01-30T00:55:52;101370.09;;;3.75;100.00
3917;BME280;1973;50.518;7.318;2023-01-30T00:58:19;101354.63;;;3.75;100.00
3917;BME280;1973;50.518;7.318;2023-01-30T01:00:45;101345.44;;;3.76;100.00
3917;BME280;1973;50.518;7.318;2023-01-30T01:03:12;101349.84;;;3.77;100.00
3917;BME280;1973;50.518;7.318;2023-01-30T01:05:39;101335.09;;;3.80;100.00
3917;BME280;1973;50.518;7.318;2023-01-30T01:08:06;101340.38;;;3.81;100.00
3917;BME280;1973;50.518;7.318;2023-01-30T01:10:32;101332.72;;;3.85;100.00
3917;BME280;1973;50.518;7.318;2023-01-30T01:12:59;101340.75;;;3.86;100.00
3917;BME280;1973;50.518;7.318;2023-01-30T01:15:26;101347.91;;;3.87;100.00
3917;BME280;1973;50.518;7.318;2023-01-30T01:17:53;101340.63;;;3.88;100.00
3917;BME280;1973;50.518;7.318;2023-01-30T01:20:20;101341.28;;;3.90;100.00
3917;BME280;1973;50.518;7.318;2023-01-30T01:22:47;101332.13;;;3.91;100.00
3917;BME280;1973;50.518;7.318;2023-01-30T01:25:17;101343.00;;;3.91;100.00
3917;BME280;1973;50.518;7.318;2023-01-30T01:27:45;101339.78;;;3.96;100.00
3917;BME280;1973;50.518;7.318;2023-01-30T01:30:12;101318.72;;;3.98;100.00
3917;BME280;1973;50.518;7.318;2023-01-30T01:32:39;101308.66;;;3.98;100.00
3917;BME280;1973;50.518;7.318;2023-01-30T01:35:06;101301.34;;;3.99;100.00
3917;BME280;1973;50.518;7.318;2023-01-30T01:37:32;101314.66;;;4.02;100.00
3917;BME280;1973;50.518;7.318;2023-01-30T01:39:59;101307.88;;;4.06;100.00
3917;BME280;1973;50.518;7.318;2023-01-30T01:42:44;101310.41;;;4.07;100.00
3917;BME280;1973;50.518;7.318;2023-01-30T01:45:22;101315.53;;;4.10;100.00
3917;BME280;1973;50.518;7.318;2023-01-30T01:47:59;101316.25;;;4.12;100.00
3917;BME280;1973;50.518;7.318;2023-01-30T01:50:40;101309.06;;;4.11;100.00
3917;BME280;1973;50.518;7.318;2023-01-30T01:53:09;101309.94;;;4.12;100.00
3917;BME280;1973;50.518;7.318;2023-01-30T01:55:37;101314.53;;;4.11;100.00
3917;BME280;1973;50.518;7.318;2023-01-30T01:58:09;101311.81;;;4.11;100.00
3917;BME280;1973;50.518;7.318;2023-01-30T02:00:38;101313.53;;;4.12;100.00
3917;BME280;1973;50.518;7.318;2023-01-30T02:03:07;101308.94;;;4.13;100.00
3917;BME280;1973;50.518;7.318;2023-01-30T02:05:38;101309.78;;;4.13;100.00
3917;BME280;1973;50.518;7.318;2023-01-30T02:08:20;101294.94;;;4.08;100.00
3917;BME280;1973;50.518;7.318;2023-01-30T02:11:08;101303.56;;;4.03;100.00
3917;BME280;1973;50.518;7.318;2023-01-30T02:13:36;101299.69;;;4.06;100.00
3917;BME280;1973;50.518;7.318;2023-01-30T02:16:04;101294.06;;;4.07;100.00
3917;BME280;1973;50.518;7.318;2023-01-30T02:18:33;101321.63;;;4.04;100.00
3917;BME280;1973;50.518;7.318;2023-01-30T02:45:59;101257.75;;;4.24;100.00
3917;BME280;1973;50.518;7.318;2023-01-30T02:48:36;101253.34;;;4.31;100.00
3917;BME280;1973;50.518;7.318;2023-01-30T02:51:10;101258.13;;;4.37;100.00
3917;BME280;1973;50.518;7.318;2023-01-30T02:53:39;101235.66;;;4.43;100.00
3917;BME280;1973;50.518;7.318;2023-01-30T02:56:05;101234.47;;;4.46;100.00
3917;BME280;1973;50.518;7.318;2023-01-30T02:58:38;101238.06;;;4.47;100.00
3917;BME280;1973;50.518;7.318;2023-01-30T03:02:19;101235.34;;;4.47;100.00
3917;BME280;1973;50.518;7.318;2023-01-30T03:07:15;101218.66;;;4.50;100.00
3917;BME280;1973;50.518;7.318;2023-01-30T03:12:50;101212.00;;;4.52;100.00
3917;BME280;1973;50.518;7.318;2023-01-30T03:15:22;101204.00;;;4.59;100.00
3917;BME280;1973;50.518;7.318;2023-01-30T03:17:52;101200.41;;;4.58;100.00
3917;BME280;1973;50.518;7.318;2023-01-30T03:20:20;101188.84;;;4.56;100.00
3917;BME280;1973;50.518;7.318;2023-01-30T03:22:46;101192.56;;;4.55;100.00
3917;BME280;1973;50.518;7.318;2023-01-30T03:25:17;101198.22;;;4.54;100.00
3917;BME280;1973;50.518;7.318;2023-01-30T03:27:45;101186.28;;;4.55;100.00
3917;BME280;1973;50.518;7.318;2023-01-30T03:30:13;101180.16;;;4.53;100.00
3917;BME280;1973;50.518;7.318;2023-01-30T03:32:40;101181.84;;;4.54;100.00
3917;BME280;1973;50.518;7.318;2023-01-30T03:35:06;101178.94;;;4.55;100.00
3917;BME280;1973;50.518;7.318;2023-01-30T03:37:33;101180.31;;;4.59;100.00
3917;BME280;1973;50.518;7.318;2023-01-30T03:39:59;101172.84;;;4.61;100.00
3917;BME280;1973;50.518;7.318;2023-01-30T03:42:26;101180.50;;;4.66;100.00
3917;BME280;1973;50.518;7.318;2023-01-30T03:44:53;101184.78;;;4.68;100.00
3917;BME280;1973;50.518;7.318;2023-01-30T03:47:19;101176.09;;;4.73;100.00
3917;BME280;1973;50.518;7.318;2023-01-30T03:49:46;101166.38;;;4.78;100.00
3917;BME280;1973;50.518;7.318;2023-01-30T03:52:12;101163.50;;;4.80;100.00
3917;BME280;1973;50.518;7.318;2023-01-30T03:54:38;101157.69;;;4.83;100.00
3917;BME280;1973;50.518;7.318;2023-01-30T03:57:05;101150.38;;;4.83;100.00
3917;BME280;1973;50.518;7.318;2023-01-30T03:59:31;101147.47;;;4.85;100.00
3917;BME280;1973;50.518;7.318;2023-01-30T04:01:58;101141.16;;;4.84;100.00
3917;BME280;1973;50.518;7.318;2023-01-30T04:04:24;101131.94;;;4.85;100.00
3917;BME280;1973;50.518;7.318;2023-01-30T04:06:51;101116.28;;;4.87;100.00
3917;BME280;1973;50.518;7.318;2023-01-30T04:09:17;101101.78;;;4.87;100.00
3917;BME280;1973;50.518;7.318;2023-01-30T04:11:43;101107.06;;;4.88;100.00
3917;BME280;1973;50.518;7.318;2023-01-30T04:14:10;101099.56;;;4.90;100.00
3917;BME280;1973;50.518;7.318;2023-01-30T04:16:36;101100.22;;;4.93;100.00
3917;BME280;1973;50.518;7.318;2023-01-30T04:19:03;101108.06;;;4.96;100.00
3917;BME280;1973;50.518;7.318;2023-01-30T04:21:29;101084.22;;;4.98;100.00
3917;BME280;1973;50.518;7.318;2023-01-30T04:23:56;101085.94;;;4.99;100.00
3917;BME280;1973;50.518;7.318;2023-01-30T04:26:22;101069.56;;;4.99;100.00
3917;BME280;1973;50.518;7.318;2023-01-30T04:28:49;101088.81;;;5.05;100.00
3917;BME280;1973;50.518;7.318;2023-01-30T04:31:15;101074.16;;;5.06;100.00
3917;BME280;1973;50.518;7.318;2023-01-30T04:33:42;101071.22;;;5.08;100.00
3917;BME280;1973;50.518;7.318;2023-01-30T04:36:09;101067.50;;;5.09;100.00
3917;BME280;1973;50.518;7.318;2023-01-30T04:38:36;101069.00;;;5.11;100.00
3917;BME280;1973;50.518;7.318;2023-01-30T04:41:03;101072.44;;;5.13;100.00
3917;BME280;1973;50.518;7.318;2023-01-30T04:43:30;101058.44;;;5.16;100.00
3917;BME280;1973;50.518;7.318;2023-01-30T04:45:57;101058.59;;;5.15;100.00
3917;BME280;1973;50.518;7.318;2023-01-30T04:48:24;101063.03;;;5.16;100.00
3917;BME280;1973;50.518;7.318;2023-01-30T04:50:52;101062.88;;;5.17;100.00
3917;BME280;1973;50.518;7.318;2023-01-30T04:53:19;101051.59;;;5.20;100.00
3917;BME280;1973;50.518;7.318;2023-01-30T04:55:46;101062.16;;;5.23;100.00
3917;BME280;1973;50.518;7.318;2023-01-30T04:58:14;101045.94;;;5.22;100.00
3917;BME280;1973;50.518;7.318;2023-01-30T05:00:41;101046.81;;;5.22;100.00
3917;BME280;1973;50.518;7.318;2023-01-30T05:03:07;101051.91;;;5.25;100.00
3917;BME280;1973;50.518;7.318;2023-01-30T05:05:34;101047.81;;;5.29;100.00
3917;BME280;1973;50.518;7.318;2023-01-30T05:08:01;101060.94;;;5.34;100.00
3917;BME280;1973;50.518;7.318;2023-01-30T05:10:27;101065.19;;;5.36;100.00
3917;BME280;1973;50.518;7.318;2023-01-30T05:12:54;101048.44;;;5.39;100.00
3917;BME280;1973;50.518;7.318;2023-01-30T05:15:20;101050.16;;;5.40;100.00
3917;BME280;1973;50.518;7.318;2023-01-30T05:17:47;101034.63;;;5.41;100.00
3917;BME280;1973;50.518;7.318;2023-01-30T05:20:13;101029.00;;;5.43;100.00
3917;BME280;1973;50.518;7.318;2023-01-30T05:22:40;101032.59;;;5.43;100.00
3917;BME280;1973;50.518;7.318;2023-01-30T05:25:06;101020.47;;;5.46;100.00
3917;BME280;1973;50.518;7.318;2023-01-30T05:27:33;101013.28;;;5.45;100.00
3917;BME280;1973;50.518;7.318;2023-01-30T05:29:59;101014.50;;;5.42;100.00
3917;BME280;1973;50.518;7.318;2023-01-30T05:32:26;101006.81;;;5.46;100.00
3917;BME280;1973;50.518;7.318;2023-01-30T05:34:55;101009.72;;;5.44;100.00
3917;BME280;1973;50.518;7.318;2023-01-30T05:37:22;101023.84;;;5.48;100.00
3917;BME280;1973;50.518;7.318;2023-01-30T05:39:49;101027.56;;;5.55;100.00
3917;BME280;1973;50.518;7.318;2023-01-30T05:42:16;101011.03;;;5.56;100.00
3917;BME280;1973;50.518;7.318;2023-01-30T05:44:42;101015.63;;;5.56;100.00
3917;BME280;1973;50.518;7.318;2023-01-30T05:47:09;101011.56;;;5.52;100.00
3917;BME280;1973;50.518;7.318;2023-01-30T05:49:35;101019.38;;;5.55;100.00
3917;BME280;1973;50.518;7.318;2023-01-30T05:52:01;101012.53;;;5.59;100.00
3917;BME280;1973;50.518;7.318;2023-01-30T05:54:28;101001.94;;;5.64;100.00
3917;BME280;1973;50.518;7.318;2023-01-30T05:56:54;101022.03;;;5.71;100.00
3917;BME280;1973;50.518;7.318;2023-01-30T05:59:21;101006.28;;;5.81;100.00
3917;BME280;1973;50.518;7.318;2023-01-30T06:01:47;101020.94;;;5.88;100.00
3917;BME280;1973;50.518;7.318;2023-01-30T06:04:14;101038.69;;;5.92;100.00
3917;BME280;1973;50.518;7.318;2023-01-30T06:06:40;101018.16;;;5.96;100.00
3917;BME280;1973;50.518;7.318;2023-01-30T06:09:09;101017.47;;;6.02;100.00
3917;BME280;1973;50.518;7.318;2023-01-30T06:11:36;101010.94;;;6.03;100.00
3917;BME280;1973;50.518;7.318;2023-01-30T06:14:02;101009.94;;;6.04;100.00
3917;BME280;1973;50.518;7.318;2023-01-30T06:16:29;101001.06;;;6.02;100.00
3917;BME280;1973;50.518;7.318;2023-01-30T06:18:55;101014.41;;;5.97;100.00
3917;BME280;1973;50.518;7.318;2023-01-30T06:21:22;101012.34;;;5.99;100.00
3917;BME280;1973;50.518;7.318;2023-01-30T06:23:48;101024.44;;;6.05;100.00
3917;BME280;1973;50.518;7.318;2023-01-30T06:26:15;101035.19;;;6.06;100.00
3917;BME280;1973;50.518;7.318;2023-01-30T06:28:41;101026.31;;;6.04;100.00
3917;BME280;1973;50.518;7.318;2023-01-30T06:31:08;101015.38;;;6.04;100.00
3917;BME280;1973;50.518;7.318;2023-01-30T06:33:35;101007.19;;;6.04;100.00
3917;BME280;1973;50.518;7.318;2023-01-30T06:36:02;100998.34;;;6.02;100.00
3917;BME280;1973;50.518;7.318;2023-01-30T06:38:28;101024.13;;;6.00;100.00
3917;BME280;1973;50.518;7.318;2023-01-30T06:40:54;101018.78;;;6.06;100.00
3917;BME280;1973;50.518;7.318;2023-01-30T06:43:21;101031.53;;;6.14;100.00
3917;BME280;1973;50.518;7.318;2023-01-30T06:45:47;101029.28;;;6.17;100.00
3917;BME280;1973;50.518;7.318;2023-01-30T06:48:14;101025.38;;;6.20;100.00
3917;BME280;1973;50.518;7.318;2023-01-30T06:50:40;101043.44;;;6.21;100.00
3917;BME280;1973;50.518;7.318;2023-01-30T06:53:07;101036.78;;;6.23;100.00
3917;BME280;1973;50.518;7.318;2023-01-30T06:55:34;101050.94;;;6.27;100.00
3917;BME280;1973;50.518;7.318;2023-01-30T06:58:10;101031.59;;;6.28;100.00
3917;BME280;1973;50.518;7.318;2023-01-30T07:00:38;101034.72;;;6.25;100.00
3917;BME280;1973;50.518;7.318;2023-01-30T07:03:12;101036.06;;;6.29;100.00
3917;BME280;1973;50.518;7.318;2023-01-30T07:05:40;101038.63;;;6.31;100.00
3917;BME280;1973;50.518;7.318;2023-01-30T07:08:07;101037.94;;;6.29;100.00
3917;BME280;1973;50.518;7.318;2023-01-30T07:10:34;101037.38;;;6.33;100.00
3917;BME280;1973;50.518;7.318;2023-01-30T07:13:02;101043.22;;;6.30;100.00
3917;BME280;1973;50.518;7.318;2023-01-30T07:15:28;101050.41;;;6.31;100.00
3917;BME280;1973;50.518;7.318;2023-01-30T07:17:55;101044.09;;;6.31;100.00
3917;BME280;1973;50.518;7.318;2023-01-30T07:20:21;101045.44;;;6.35;100.00
3917;BME280;1973;50.518;7.318;2023-01-30T07:22:52;101055.88;;;6.31;100.00
3917;BME280;1973;50.518;7.318;2023-01-30T07:25:20;101043.72;;;6.34;100.00
3917;BME280;1973;50.518;7.318;2023-01-30T07:27:50;101066.06;;;6.38;100.00
3917;BME280;1973;50.518;7.318;2023-01-30T07:30:17;101046.94;;;6.38;100.00
3917;BME280;1973;50.518;7.318;2023-01-30T07:32:48;101036.00;;;6.38;100.00
3917;BME280;1973;50.518;7.318;2023-01-30T07:35:15;101053.78;;;6.33;100.00
3917;BME280;1973;50.518;7.318;2023-01-30T07:37:44;101055.13;;;6.38;100.00
3917;BME280;1973;50.518;7.318;2023-01-30T07:40:11;101062.97;;;6.41;100.00
3917;BME280;1973;50.518;7.318;2023-01-30T07:42:37;101064.47;;;6.43;100.00
3917;BME280;1973;50.518;7.318;2023-01-30T07:45:04;101056.47;;;6.42;100.00
3917;BME280;1973;50.518;7.318;2023-01-30T07:47:31;101045.53;;;6.42;100.00
3917;BME280;1973;50.518;7.318;2023-01-30T07:49:57;101044.03;;;6.39;100.00
3917;BME280;1973;50.518;7.318;2023-01-30T07:52:24;101043.19;;;6.39;100.00
3917;BME280;1973;50.518;7.318;2023-01-30T07:54:50;101048.44;;;6.40;100.00
3917;BME280;1973;50.518;7.318;2023-01-30T07:57:16;101056.47;;;6.42;100.00
3917;BME280;1973;50.518;7.318;2023-01-30T07:59:43;101064.84;;;6.40;100.00
3917;BME280;1973;50.518;7.318;2023-01-30T08:02:09;101056.28;;;6.43;100.00
3917;BME280;1973;50.518;7.318;2023-01-30T08:04:36;101069.13;;;6.43;100.00
3917;BME280;1973;50.518;7.318;2023-01-30T08:07:03;101069.94;;;6.43;100.00
3917;BME280;1973;50.518;7.318;2023-01-30T08:09:30;101070.16;;;6.42;100.00
3917;BME280;1973;50.518;7.318;2023-01-30T08:11:56;101068.63;;;6.39;100.00
3917;BME280;1973;50.518;7.318;2023-01-30T08:14:22;101059.81;;;6.29;100.00
3917;BME280;1973;50.518;7.318;2023-01-30T08:16:50;101062.41;;;6.22;100.00
3917;BME280;1973;50.518;7.318;2023-01-30T08:19:17;101077.44;;;6.26;100.00
3917;BME280;1973;50.518;7.318;2023-01-30T08:21:44;101084.41;;;6.29;100.00
3917;BME280;1973;50.518;7.318;2023-01-30T08:24:10;101082.72;;;6.28;100.00
3917;BME280;1973;50.518;7.318;2023-01-30T08:26:36;101088.00;;;6.29;100.00
3917;BME280;1973;50.518;7.318;2023-01-30T08:29:03;101089.72;;;6.30;100.00
3917;BME280;1973;50.518;7.318;2023-01-30T08:31:30;101082.84;;;6.34;100.00
3917;BME280;1973;50.518;7.318;2023-01-30T08:33:56;101084.56;;;6.35;100.00
3917;BME280;1973;50.518;7.318;2023-01-30T08:36:23;101079.91;;;6.36;100.00
3917;BME280;1973;50.518;7.318;2023-01-30T08:38:49;101073.97;;;6.32;100.00
3917;BME280;1973;50.518;7.318;2023-01-30T08:41:15;101070.31;;;6.40;100.00
3917;BME280;1973;50.518;7.318;2023-01-30T08:43:42;101073.97;;;6.32;100.00
3917;BME280;1973;50.518;7.318;2023-01-30T08:46:08;101067.59;;;6.40;100.00
3917;BME280;1973;50.518;7.318;2023-01-30T08:48:35;101058.03;;;6.36;100.00
3917;BME280;1973;50.518;7.318;2023-01-30T08:51:15;101056.91;;;6.30;100.00
3917;BME280;1973;50.518;7.318;2023-01-30T08:53:41;101069.22;;;6.26;100.00
3917;BME280;1973;50.518;7.318;2023-01-30T08:56:08;101084.78;;;6.26;100.00
3917;BME280;1973;50.518;7.318;2023-01-30T08:58:34;101088.19;;;6.28;100.00
3917;BME280;1973;50.518;7.318;2023-01-30T09:01:06;101080.06;;;6.43;100.00
3917;BME280;1973;50.518;7.318;2023-01-30T09:03:33;101079.63;;;6.54;100.00
3917;BME280;1973;50.518;7.318;2023-01-30T09:06:00;101076.16;;;6.60;100.00
3917;BME280;1973;50.518;7.318;2023-01-30T09:08:27;101085.00;;;6.62;100.00
3917;BME280;1973;50.518;7.318;2023-01-30T09:10:57;101092.19;;;6.63;100.00
3917;BME280;1973;50.518;7.318;2023-01-30T09:13:25;101099.75;;;6.61;100.00
3917;BME280;1973;50.518;7.318;2023-01-30T09:15:51;101081.63;;;6.60;100.00
3917;BME280;1973;50.518;7.318;2023-01-30T09:18:18;101087.59;;;6.63;100.00
3917;BME280;1973;50.518;7.318;2023-01-30T09:20:45;101090.81;;;6.67;100.00
3917;BME280;1973;50.518;7.318;2023-01-30T09:23:11;101104.00;;;6.63;100.00
3917;BME280;1973;50.518;7.318;2023-01-30T09:25:38;101082.91;;;6.72;100.00
3917;BME280;1973;50.518;7.318;2023-01-30T09:28:04;101086.97;;;6.76;100.00
3917;BME280;1973;50.518;7.318;2023-01-30T09:30:31;101086.97;;;6.76;100.00
3917;BME280;1973;50.518;7.318;2023-01-30T09:32:57;101081.03;;;6.72;100.00
3917;BME280;1973;50.518;7.318;2023-01-30T09:35:24;101072.25;;;6.77;100.00
3917;BME280;1973;50.518;7.318;2023-01-30T09:37:52;101068.97;;;6.81;100.00
3917;BME280;1973;50.518;7.318;2023-01-30T09:40:43;101068.69;;;6.91;100.00
3917;BME280;1973;50.518;7.318;2023-01-30T09:43:41;101072.75;;;6.95;100.00
3917;BME280;1973;50.518;7.318;2023-01-30T09:49:08;101059.47;;;7.07;100.00
3917;BME280;1973;50.518;7.318;2023-01-30T09:54:17;101075.53;;;7.24;100.00
3917;BME280;1973;50.518;7.318;2023-01-30T09:56:55;101071.41;;;7.28;100.00
3917;BME280;1973;50.518;7.318;2023-01-30T09:59:30;101075.09;;;7.35;100.00
3917;BME280;1973;50.518;7.318;2023-01-30T10:02:30;101061.03;;;7.39;100.00
3917;BME280;1973;50.518;7.318;2023-01-30T10:04:59;101062.63;;;7.48;100.00
3917;BME280;1973;50.518;7.318;2023-01-30T10:07:33;101067.63;;;7.59;100.00
3917;BME280;1973;50.518;7.318;2023-01-30T10:18:44;101088.00;;;8.00;100.00
3917;BME280;1973;50.518;7.318;2023-01-30T10:21:18;101066.59;;;8.10;100.00
3917;BME280;1973;50.518;7.318;2023-01-30T10:26:20;101059.38;;;8.39;100.00
3917;BME280;1973;50.518;7.318;2023-01-30T10:29:14;101054.13;;;8.65;100.00
3917;BME280;1973;50.518;7.318;2023-01-30T10:31:50;101048.78;;;9.06;100.00
3917;BME280;1973;50.518;7.318;2023-01-30T10:34:34;101049.69;;;9.41;100.00
3917;BME280;1973;50.518;7.318;2023-01-30T10:37:18;101035.91;;;9.75;100.00
3917;BME280;1973;50.518;7.318;2023-01-30T10:39:53;101041.75;;;10.06;100.00
3917;BME280;1973;50.518;7.318;2023-01-30T10:42:33;101044.84;;;10.38;100.00
3917;BME280;1973;50.518;7.318;2023-01-30T10:45:14;101060.94;;;10.47;100.00
3917;BME280;1973;50.518;7.318;2023-01-30T10:50:55;101033.25;;;10.82;100.00
3917;BME280;1973;50.518;7.318;2023-01-30T10:53:44;101061.44;;;11.03;100.00
3917;BME280;1973;50.518;7.318;2023-01-30T10:56:23;101070.50;;;11.23;100.00
3917;BME280;1973;50.518;7.318;2023-01-30T10:58:58;101063.75;;;11.33;100.00
3917;BME280;1973;50.518;7.318;2023-01-30T11:01:46;101042.13;;;11.10;91.85
3917;BME280;1973;50.518;7.318;2023-01-30T11:04:28;101047.22;;;11.00;93.34
3917;BME280;1973;50.518;7.318;2023-01-30T11:06:59;101052.31;;;10.90;98.75
3917;BME280;1973;50.518;7.318;2023-01-30T11:09:43;101047.41;;;10.72;91.70
3917;BME280;1973;50.518;7.318;2023-01-30T11:12:11;101054.41;;;10.61;98.00
3917;BME280;1973;50.518;7.318;2023-01-30T11:14:58;101047.81;;;10.43;90.59
3917;BME280;1973;50.518;7.318;2023-01-30T11:17:35;101055.38;;;10.27;92.33
3917;BME280;1973;50.518;7.318;2023-01-30T11:20:10;101076.22;;;10.02;93.30
3917;BME280;1973;50.518;7.318;2023-01-30T11:23:06;101064.72;;;9.79;94.15
3917;BME280;1973;50.518;7.318;2023-01-30T11:25:31;101079.69;;;9.76;98.51
3917;BME280;1973;50.518;7.318;2023-01-30T11:28:13;101074.75;;;9.65;98.78
3917;BME280;1973;50.518;7.318;2023-01-30T11:30:40;101058.06;;;9.67;100.00
3917;BME280;1973;50.518;7.318;2023-01-30T11:33:15;101065.03;;;9.63;99.63
3917;BME280;1973;50.518;7.318;2023-01-30T11:35:51;101060.97;;;9.59;98.70
3917;BME280;1973;50.518;7.318;2023-01-30T11:38:22;101070.06;;;9.53;100.00
3917;BME280;1973;50.518;7.318;2023-01-30T11:40:49;101071.69;;;9.47;100.00
3917;BME280;1973;50.518;7.318;2023-01-30T11:43:27;101066.34;;;9.39;100.00
3917;BME280;1973;50.518;7.318;2023-01-30T11:45:54;101051.56;;;9.40;100.00
3917;BME280;1973;50.518;7.318;2023-01-30T11:48:26;101055.31;;;9.33;99.83
3917;BME280;1973;50.518;7.318;2023-01-30T11:51:14;101059.59;;;9.76;96.21
3917;BME280;1973;50.518;7.318;2023-01-30T11:53:45;101040.78;;;9.79;95.70
3917;BME280;1973;50.518;7.318;2023-01-30T11:56:34;101066.47;;;9.93;92.02
3917;BME280;1973;50.518;7.318;2023-01-30T11:59:27;101057.97;;;9.88;93.87
3917;BME280;1973;50.518;7.318;2023-01-30T12:01:52;101034.63;;;9.71;95.29
3917;BME280;1973;50.518;7.318;2023-01-30T12:04:27;101046.38;;;9.58;94.51
3917;BME280;1973;50.518;7.318;2023-01-30T12:07:05;101030.06;;;9.50;91.72
3917;BME280;1973;50.518;7.318;2023-01-30T12:09:37;101047.78;;;9.41;92.98
3917;BME280;1973;50.518;7.318;2023-01-30T12:12:26;101042.25;;;9.35;91.67
3917;BME280;1973;50.518;7.318;2023-01-30T12:15:00;101044.59;;;9.38;92.52
3917;BME280;1973;50.518;7.318;2023-01-30T12:17:37;101060.34;;;9.57;92.45
3917;BME280;1973;50.518;7.318;2023-01-30T12:20:24;101054.28;;;9.68;92.17
3917;BME280;1973;50.518;7.318;2023-01-30T12:23:06;101040.09;;;9.64;91.78
3917;BME280;1973;50.518;7.318;2023-01-30T12:25:41;101032.16;;;9.83;92.92
3917;BME280;1973;50.518;7.318;2023-01-30T12:28:31;101041.47;;;9.88;91.38
3917;BME280;1973;50.518;7.318;2023-01-30T12:31:05;101051.84;;;9.93;92.58
3917;BME280;1973;50.518;7.318;2023-01-30T12:33:33;101050.91;;;9.72;93.97
3917;BME280;1973;50.518;7.318;2023-01-30T12:38:55;101053.56;;;9.53;95.21
3917;BME280;1973;50.518;7.318;2023-01-30T12:47:00;101057.91;;;9.75;95.79
3917;BME280;1973;50.518;7.318;2023-01-30T12:49:49;101043.06;;;9.69;95.16
3917;BME280;1973;50.518;7.318;2023-01-30T12:57:55;101046.66;;;9.70;94.78
3917;BME280;1973;50.518;7.318;2023-01-30T13:03:24;101060.38;;;9.63;95.90
3917;BME280;1973;50.518;7.318;2023-01-30T13:06:06;101070.44;;;9.50;96.23
3917;BME280;1973;50.518;7.318;2023-01-30T13:08:45;101063.16;;;9.36;97.10
3917;BME280;1973;50.518;7.318;2023-01-30T13:11:26;101064.81;;;9.30;99.08
3917;BME280;1973;50.518;7.318;2023-01-30T13:14:01;101063.72;;;9.24;100.00
3917;BME280;1973;50.518;7.318;2023-01-30T13:16:57;101090.06;;;9.12;100.00
3917;BME280;1973;50.518;7.318;2023-01-30T13:19:34;101101.72;;;8.93;100.00
3917;BME280;1973;50.518;7.318;2023-01-30T13:22:34;101122.84;;;8.71;100.00
3917;BME280;1973;50.518;7.318;2023-01-30T13:27:45;101099.75;;;8.45;100.00
3917;BME280;1973;50.518;7.318;2023-01-30T13:30:16;101126.03;;;8.39;100.00
3917;BME280;1973;50.518;7.318;2023-01-30T13:32:46;101123.50;;;8.38;100.00
3917;BME280;1973;50.518;7.318;2023-01-30T13:35:17;101123.91;;;8.35;100.00
3917;BME280;1973;50.518;7.318;2023-01-30T13:37:46;101123.50;;;8.38;100.00
3917;BME280;1973;50.518;7.318;2023-01-30T13:40:18;101127.75;;;8.40;100.00
3917;BME280;1973;50.518;7.318;2023-01-30T13:42:55;101124.44;;;8.45;100.00
3917;BME280;1973;50.518;7.318;2023-01-30T13:45:31;101137.59;;;8.49;100.00
3917;BME280;1973;50.518;7.318;2023-01-30T13:53:52;101173.84;;;8.66;100.00
3917;BME280;1973;50.518;7.318;2023-01-30T14:07:23;101150.56;;;8.98;100.00
3917;BME280;1973;50.518;7.318;2023-01-30T14:12:33;101163.44;;;8.97;100.00
3917;BME280;1973;50.518;7.318;2023-01-30T14:20:25;101169.41;;;8.65;100.00
3917;BME280;1973;50.518;7.318;2023-01-30T14:23:00;101189.00;;;8.62;100.00
3917;BME280;1973;50.518;7.318;2023-01-30T14:32:59;101196.69;;;8.52;100.00
3917;BME280;1973;50.518;7.318;2023-01-30T14:35:31;101191.22;;;8.52;100.00
3917;BME280;1973;50.518;7.318;2023-01-30T14:38:16;101192.91;;;8.53;100.00
3917;BME280;1973;50.518;7.318;2023-01-30T14:45:52;101216.56;;;8.54;100.00
3917;BME280;1973;50.518;7.318;2023-01-30T14:48:27;101225.84;;;8.53;100.00
3917;BME280;1973;50.518;7.318;2023-01-30T14:56:16;101226.88;;;8.52;100.00
3917;BME280;1973;50.518;7.318;2023-01-30T14:58:59;101230.41;;;8.46;100.00
3917;BME280;1973;50.518;7.318;2023-01-30T15:01:26;101246.28;;;8.50;100.00
3917;BME280;1973;50.518;7.318;2023-01-30T15:03:53;101242.31;;;8.53;100.00
3917;BME280;1973;50.518;7.318;2023-01-30T15:06:20;101249.00;;;8.50;100.00
3917;BME280;1973;50.518;7.318;2023-01-30T15:08:46;101240.22;;;8.55;100.00
3917;BME280;1973;50.518;7.318;2023-01-30T15:11:21;101251.41;;;8.53;100.00
3917;BME280;1973;50.518;7.318;2023-01-30T15:14:05;101239.81;;;8.58;100.00
3917;BME280;1973;50.518;7.318;2023-01-30T15:16:57;101249.31;;;8.55;100.00
3917;BME280;1973;50.518;7.318;2023-01-30T15:20:04;101253.69;;;8.50;100.00
3917;BME280;1973;50.518;7.318;2023-01-30T15:23:03;101259.34;;;8.48;100.00
3917;BME280;1973;50.518;7.318;2023-01-30T15:26:28;101263.78;;;8.49;100.00